sensor_id;sensor_type;location;lat;lon;timestamp;temperature;humidity
7518;DHT22;3800;48.922;9.444;2023-07-29T00:00:12;17.40;99.90
7518;DHT22;3800;48.922;9.444;2023-07-29T00:02:41;17.30;99.90
7518;DHT22;3800;48.922;9.444;2023-07-29T00:05:09;17.30;99.90
7518;DHT22;3800;48.922;9.444;2023-07-29T00:07:37;17.30;99.90
7518;DHT22;3800;48.922;9.444;2023-07-29T00:10:06;17.30;99.90
7518;DHT22;3800;48.922;9.444;2023-07-29T00:12:35;17.20;99.90
7518;DHT22;3800;48.922;9.444;2023-07-29T00:15:04;17.20;99.90
7518;DHT22;3800;48.922;9.444;2023-07-29T00:17:32;17.20;99.90
7518;DHT22;3800;48.922;9.444;2023-07-29T00:20:00;17.20;99.90
7518;DHT22;3800;48.922;9.444;2023-07-29T00:22:29;17.20;99.90
7518;DHT22;3800;48.922;9.444;2023-07-29T00:24:57;17.20;99.90
7518;DHT22;3800;48.922;9.444;2023-07-29T00:27:26;17.20;99.90
7518;DHT22;3800;48.922;9.444;2023-07-29T00:29:54;17.20;99.90
7518;DHT22;3800;48.922;9.444;2023-07-29T00:32:23;17.20;99.90
7518;DHT22;3800;48.922;9.444;2023-07-29T00:34:51;17.20;99.90
7518;DHT22;3800;48.922;9.444;2023-07-29T00:37:19;17.20;99.90
7518;DHT22;3800;48.922;9.444;2023-07-29T00:39:47;17.20;99.90
7518;DHT22;3800;48.922;9.444;2023-07-29T00:42:16;17.20;99.90
7518;DHT22;3800;48.922;9.444;2023-07-29T00:44:44;17.20;99.90
7518;DHT22;3800;48.922;9.444;2023-07-29T00:47:12;17.20;99.90
7518;DHT22;3800;48.922;9.444;2023-07-29T00:49:41;17.20;99.90
7518;DHT22;3800;48.922;9.444;2023-07-29T00:52:10;17.20;99.90
7518;DHT22;3800;48.922;9.444;2023-07-29T00:54:39;17.20;99.90
7518;DHT22;3800;48.922;9.444;2023-07-29T00:57:08;17.20;99.90
7518;DHT22;3800;48.922;9.444;2023-07-29T00:59:36;17.20;99.90
7518;DHT22;3800;48.922;9.444;2023-07-29T01:02:04;17.20;99.90
7518;DHT22;3800;48.922;9.444;2023-07-29T01:04:32;17.20;99.90
7518;DHT22;3800;48.922;9.444;2023-07-29T01:07:07;17.20;99.90
7518;DHT22;3800;48.922;9.444;2023-07-29T01:09:44;17.20;99.90
7518;DHT22;3800;48.922;9.444;2023-07-29T01:12:47;17.20;99.90
7518;DHT22;3800;48.922;9.444;2023-07-29T01:15:21;17.20;99.90
7518;DHT22;3800;48.922;9.444;2023-07-29T01:17:53;17.20;99.90
7518;DHT22;3800;48.922;9.444;2023-07-29T01:20:22;17.20;99.90
7518;DHT22;3800;48.922;9.444;2023-07-29T01:22:50;17.20;99.90
7518;DHT22;3800;48.922;9.444;2023-07-29T01:25:18;17.20;99.90
7518;DHT22;3800;48.922;9.444;2023-07-29T01:27:48;17.20;99.90
7518;DHT22;3800;48.922;9.444;2023-07-29T01:30:15;17.20;99.90
7518;DHT22;3800;48.922;9.444;2023-07-29T01:32:56;17.30;99.90
7518;DHT22;3800;48.922;9.444;2023-07-29T01:35:43;17.30;99.90
7518;DHT22;3800;48.922;9.444;2023-07-29T01:38:18;17.30;99.90
7518;DHT22;3800;48.922;9.444;2023-07-29T01:40:44;17.30;99.90
7518;DHT22;3800;48.922;9.444;2023-07-29T01:43:13;17.30;99.90
7518;DHT22;3800;48.922;9.444;2023-07-29T01:45:41;17.30;99.90
7518;DHT22;3800;48.922;9.444;2023-07-29T01:48:09;17.20;99.90
7518;DHT22;3800;48.922;9.444;2023-07-29T01:50:37;17.20;99.90
7518;DHT22;3800;48.922;9.444;2023-07-29T01:53:06;17.20;99.90
7518;DHT22;3800;48.922;9.444;2023-07-29T01:55:34;17.20;99.90
7518;DHT22;3800;48.922;9.444;2023-07-29T01:58:03;17.20;99.90
7518;DHT22;3800;48.922;9.444;2023-07-29T02:00:31;17.20;99.90
7518;DHT22;3800;48.922;9.444;2023-07-29T02:03:00;17.20;99.90
7518;DHT22;3800;48.922;9.444;2023-07-29T02:05:28;17.20;99.90
7518;DHT22;3800;48.922;9.444;2023-07-29T02:07:56;17.20;99.90
7518;DHT22;3800;48.922;9.444;2023-07-29T02:10:25;17.20;99.90
7518;DHT22;3800;48.922;9.444;2023-07-29T02:12:53;17.20;99.90
7518;DHT22;3800;48.922;9.444;2023-07-29T02:15:21;17.20;99.90
7518;DHT22;3800;48.922;9.444;2023-07-29T02:17:50;17.20;99.90
7518;DHT22;3800;48.922;9.444;2023-07-29T02:20:19;17.20;99.90
7518;DHT22;3800;48.922;9.444;2023-07-29T02:22:48;17.20;99.90
7518;DHT22;3800;48.922;9.444;2023-07-29T02:25:16;17.20;99.90
7518;DHT22;3800;48.922;9.444;2023-07-29T02:27:45;17.30;99.90
7518;DHT22;3800;48.922;9.444;2023-07-29T02:30:13;17.30;99.90
7518;DHT22;3800;48.922;9.444;2023-07-29T02:32:41;17.30;99.90
7518;DHT22;3800;48.922;9.444;2023-07-29T02:35:10;17.30;99.90
7518;DHT22;3800;48.922;9.444;2023-07-29T02:37:38;17.30;99.90
7518;DHT22;3800;48.922;9.444;2023-07-29T02:40:07;17.30;99.90
7518;DHT22;3800;48.922;9.444;2023-07-29T02:42:35;17.30;99.90
7518;DHT22;3800;48.922;9.444;2023-07-29T02:45:04;17.30;99.90
7518;DHT22;3800;48.922;9.444;2023-07-29T02:47:32;17.30;99.90
7518;DHT22;3800;48.922;9.444;2023-07-29T02:50:01;17.30;99.90
7518;DHT22;3800;48.922;9.444;2023-07-29T02:52:29;17.20;99.90
7518;DHT22;3800;48.922;9.444;2023-07-29T02:54:57;17.30;99.90
7518;DHT22;3800;48.922;9.444;2023-07-29T02:57:26;17.20;99.90
7518;DHT22;3800;48.922;9.444;2023-07-29T02:59:54;17.20;99.90
7518;DHT22;3800;48.922;9.444;2023-07-29T03:02:23;17.20;99.90
7518;DHT22;3800;48.922;9.444;2023-07-29T03:04:52;17.30;99.90
7518;DHT22;3800;48.922;9.444;2023-07-29T03:07:20;17.20;99.90
7518;DHT22;3800;48.922;9.444;2023-07-29T03:09:49;17.20;99.90
7518;DHT22;3800;48.922;9.444;2023-07-29T03:12:18;17.20;99.90
7518;DHT22;3800;48.922;9.444;2023-07-29T03:14:47;17.20;99.90
7518;DHT22;3800;48.922;9.444;2023-07-29T03:17:14;17.20;99.90
7518;DHT22;3800;48.922;9.444;2023-07-29T03:19:43;17.20;99.90
7518;DHT22;3800;48.922;9.444;2023-07-29T03:22:11;17.20;99.90
7518;DHT22;3800;48.922;9.444;2023-07-29T03:24:40;17.20;99.90
7518;DHT22;3800;48.922;9.444;2023-07-29T03:27:09;17.20;99.90
7518;DHT22;3800;48.922;9.444;2023-07-29T03:29:37;17.20;99.90
7518;DHT22;3800;48.922;9.444;2023-07-29T03:32:05;17.20;99.90
7518;DHT22;3800;48.922;9.444;2023-07-29T03:34:34;17.10;99.90
7518;DHT22;3800;48.922;9.444;2023-07-29T03:37:02;17.10;99.90
7518;DHT22;3800;48.922;9.444;2023-07-29T03:39:30;17.10;99.90
7518;DHT22;3800;48.922;9.444;2023-07-29T03:41:59;17.10;99.90
7518;DHT22;3800;48.922;9.444;2023-07-29T03:44:27;17.00;99.90
7518;DHT22;3800;48.922;9.444;2023-07-29T03:46:55;17.10;99.90
7518;DHT22;3800;48.922;9.444;2023-07-29T03:49:25;17.00;99.90
7518;DHT22;3800;48.922;9.444;2023-07-29T03:51:53;17.00;99.90
7518;DHT22;3800;48.922;9.444;2023-07-29T03:54:22;17.00;99.90
7518;DHT22;3800;48.922;9.444;2023-07-29T03:56:51;17.00;99.90
7518;DHT22;3800;48.922;9.444;2023-07-29T03:59:19;17.00;99.90
7518;DHT22;3800;48.922;9.444;2023-07-29T04:01:47;17.00;99.90
7518;DHT22;3800;48.922;9.444;2023-07-29T04:04:16;17.00;99.90
7518;DHT22;3800;48.922;9.444;2023-07-29T04:06:45;17.00;99.90
7518;DHT22;3800;48.922;9.444;2023-07-29T04:09:13;17.00;99.90
7518;DHT22;3800;48.922;9.444;2023-07-29T04:11:41;17.00;99.90
7518;DHT22;3800;48.922;9.444;2023-07-29T04:14:09;17.10;99.90
7518;DHT22;3800;48.922;9.444;2023-07-29T04:16:38;17.10;99.90
7518;DHT22;3800;48.922;9.444;2023-07-29T04:19:07;17.10;99.90
7518;DHT22;3800;48.922;9.444;2023-07-29T04:21:35;17.10;99.90
7518;DHT22;3800;48.922;9.444;2023-07-29T04:24:04;17.00;99.90
7518;DHT22;3800;48.922;9.444;2023-07-29T04:26:32;17.00;99.90
7518;DHT22;3800;48.922;9.444;2023-07-29T04:29:01;17.10;99.90
7518;DHT22;3800;48.922;9.444;2023-07-29T04:31:29;17.10;99.90
7518;DHT22;3800;48.922;9.444;2023-07-29T04:33:57;17.00;99.90
7518;DHT22;3800;48.922;9.444;2023-07-29T04:36:25;17.10;99.90
7518;DHT22;3800;48.922;9.444;2023-07-29T04:38:54;17.10;99.90
7518;DHT22;3800;48.922;9.444;2023-07-29T04:41:23;17.10;99.90
7518;DHT22;3800;48.922;9.444;2023-07-29T04:43:51;17.10;99.90
7518;DHT22;3800;48.922;9.444;2023-07-29T04:46:19;17.10;99.90
7518;DHT22;3800;48.922;9.444;2023-07-29T04:48:48;17.10;99.90
7518;DHT22;3800;48.922;9.444;2023-07-29T04:51:17;17.10;99.90
7518;DHT22;3800;48.922;9.444;2023-07-29T04:53:45;17.10;99.90
7518;DHT22;3800;48.922;9.444;2023-07-29T04:56:13;17.10;99.90
7518;DHT22;3800;48.922;9.444;2023-07-29T04:58:42;17.20;99.90
7518;DHT22;3800;48.922;9.444;2023-07-29T05:01:10;17.20;99.90
7518;DHT22;3800;48.922;9.444;2023-07-29T05:03:39;17.20;99.90
7518;DHT22;3800;48.922;9.444;2023-07-29T05:06:07;17.20;99.90
7518;DHT22;3800;48.922;9.444;2023-07-29T05:08:36;17.20;99.90
7518;DHT22;3800;48.922;9.444;2023-07-29T05:11:03;17.20;99.90
7518;DHT22;3800;48.922;9.444;2023-07-29T05:13:32;17.20;99.90
7518;DHT22;3800;48.922;9.444;2023-07-29T05:16:00;17.20;99.90
7518;DHT22;3800;48.922;9.444;2023-07-29T05:18:28;17.20;99.90
7518;DHT22;3800;48.922;9.444;2023-07-29T05:20:57;17.20;99.90
7518;DHT22;3800;48.922;9.444;2023-07-29T05:23:26;17.20;99.90
7518;DHT22;3800;48.922;9.444;2023-07-29T05:25:54;17.20;99.90
7518;DHT22;3800;48.922;9.444;2023-07-29T05:28:22;17.20;99.90
7518;DHT22;3800;48.922;9.444;2023-07-29T05:30:50;17.20;99.90
7518;DHT22;3800;48.922;9.444;2023-07-29T05:33:19;17.30;99.90
7518;DHT22;3800;48.922;9.444;2023-07-29T05:35:47;17.30;99.90
7518;DHT22;3800;48.922;9.444;2023-07-29T05:38:15;17.40;99.90
7518;DHT22;3800;48.922;9.444;2023-07-29T05:40:43;17.40;99.90
7518;DHT22;3800;48.922;9.444;2023-07-29T05:43:12;17.50;99.90
7518;DHT22;3800;48.922;9.444;2023-07-29T05:45:40;17.60;99.90
7518;DHT22;3800;48.922;9.444;2023-07-29T05:48:09;17.60;99.90
7518;DHT22;3800;48.922;9.444;2023-07-29T05:50:37;17.60;99.90
7518;DHT22;3800;48.922;9.444;2023-07-29T05:53:06;17.70;99.90
7518;DHT22;3800;48.922;9.444;2023-07-29T05:55:35;17.80;99.90
7518;DHT22;3800;48.922;9.444;2023-07-29T05:58:03;17.80;99.90
7518;DHT22;3800;48.922;9.444;2023-07-29T06:00:31;17.80;99.90
7518;DHT22;3800;48.922;9.444;2023-07-29T06:02:59;17.80;99.90
7518;DHT22;3800;48.922;9.444;2023-07-29T06:05:28;17.90;99.90
7518;DHT22;3800;48.922;9.444;2023-07-29T06:07:57;17.90;99.90
7518;DHT22;3800;48.922;9.444;2023-07-29T06:10:25;17.90;99.90
7518;DHT22;3800;48.922;9.444;2023-07-29T06:12:54;18.10;99.90
7518;DHT22;3800;48.922;9.444;2023-07-29T06:15:22;18.00;99.90
7518;DHT22;3800;48.922;9.444;2023-07-29T06:17:50;18.10;99.90
7518;DHT22;3800;48.922;9.444;2023-07-29T06:20:19;18.20;99.90
7518;DHT22;3800;48.922;9.444;2023-07-29T06:22:47;18.30;99.90
7518;DHT22;3800;48.922;9.444;2023-07-29T06:25:15;18.30;99.90
7518;DHT22;3800;48.922;9.444;2023-07-29T06:27:44;18.40;99.90
7518;DHT22;3800;48.922;9.444;2023-07-29T06:30:12;18.50;99.90
7518;DHT22;3800;48.922;9.444;2023-07-29T06:32:40;18.60;99.90
7518;DHT22;3800;48.922;9.444;2023-07-29T06:35:08;18.70;99.90
7518;DHT22;3800;48.922;9.444;2023-07-29T06:37:37;18.70;99.90
7518;DHT22;3800;48.922;9.444;2023-07-29T06:40:05;18.80;99.90
7518;DHT22;3800;48.922;9.444;2023-07-29T06:42:34;18.90;99.90
7518;DHT22;3800;48.922;9.444;2023-07-29T06:45:03;18.90;99.90
7518;DHT22;3800;48.922;9.444;2023-07-29T06:47:31;18.90;99.90
7518;DHT22;3800;48.922;9.444;2023-07-29T06:49:59;19.00;99.90
7518;DHT22;3800;48.922;9.444;2023-07-29T06:52:27;19.00;99.90
7518;DHT22;3800;48.922;9.444;2023-07-29T06:54:56;19.00;99.90
7518;DHT22;3800;48.922;9.444;2023-07-29T06:57:24;19.00;99.90
7518;DHT22;3800;48.922;9.444;2023-07-29T06:59:53;19.00;99.90
7518;DHT22;3800;48.922;9.444;2023-07-29T07:02:21;19.00;99.90
7518;DHT22;3800;48.922;9.444;2023-07-29T07:04:49;19.10;99.90
7518;DHT22;3800;48.922;9.444;2023-07-29T07:07:18;19.10;99.90
7518;DHT22;3800;48.922;9.444;2023-07-29T07:09:46;19.10;99.90
7518;DHT22;3800;48.922;9.444;2023-07-29T07:12:15;19.10;99.90
7518;DHT22;3800;48.922;9.444;2023-07-29T07:14:43;19.10;99.90
7518;DHT22;3800;48.922;9.444;2023-07-29T07:17:11;19.10;99.90
7518;DHT22;3800;48.922;9.444;2023-07-29T07:19:40;19.10;99.90
7518;DHT22;3800;48.922;9.444;2023-07-29T07:22:08;19.10;99.90
7518;DHT22;3800;48.922;9.444;2023-07-29T07:24:37;19.10;99.90
7518;DHT22;3800;48.922;9.444;2023-07-29T07:27:06;19.00;99.90
7518;DHT22;3800;48.922;9.444;2023-07-29T07:29:34;19.00;99.90
7518;DHT22;3800;48.922;9.444;2023-07-29T07:32:03;19.00;99.90
7518;DHT22;3800;48.922;9.444;2023-07-29T07:34:31;19.00;99.90
7518;DHT22;3800;48.922;9.444;2023-07-29T07:36:59;18.90;99.90
7518;DHT22;3800;48.922;9.444;2023-07-29T07:39:27;18.90;99.90
7518;DHT22;3800;48.922;9.444;2023-07-29T07:41:56;18.90;99.90
7518;DHT22;3800;48.922;9.444;2023-07-29T07:44:24;18.90;99.90
7518;DHT22;3800;48.922;9.444;2023-07-29T07:46:52;18.80;99.90
7518;DHT22;3800;48.922;9.444;2023-07-29T07:49:22;18.80;99.90
7518;DHT22;3800;48.922;9.444;2023-07-29T07:51:50;18.80;99.90
7518;DHT22;3800;48.922;9.444;2023-07-29T07:54:18;18.80;99.90
7518;DHT22;3800;48.922;9.444;2023-07-29T07:56:47;18.90;99.90
7518;DHT22;3800;48.922;9.444;2023-07-29T07:59:15;18.80;99.90
7518;DHT22;3800;48.922;9.444;2023-07-29T08:01:43;18.90;99.90
7518;DHT22;3800;48.922;9.444;2023-07-29T08:04:12;18.90;99.90
7518;DHT22;3800;48.922;9.444;2023-07-29T08:06:41;18.80;99.90
7518;DHT22;3800;48.922;9.444;2023-07-29T08:09:09;18.90;99.90
7518;DHT22;3800;48.922;9.444;2023-07-29T08:11:38;18.90;99.90
7518;DHT22;3800;48.922;9.444;2023-07-29T08:14:06;18.90;99.90
7518;DHT22;3800;48.922;9.444;2023-07-29T08:16:35;19.00;99.90
7518;DHT22;3800;48.922;9.444;2023-07-29T08:19:04;19.10;99.90
7518;DHT22;3800;48.922;9.444;2023-07-29T08:21:32;19.10;99.90
7518;DHT22;3800;48.922;9.444;2023-07-29T08:24:00;19.20;99.90
7518;DHT22;3800;48.922;9.444;2023-07-29T08:26:29;19.20;99.90
7518;DHT22;3800;48.922;9.444;2023-07-29T08:28:57;19.20;99.90
7518;DHT22;3800;48.922;9.444;2023-07-29T08:31:26;19.20;99.90
7518;DHT22;3800;48.922;9.444;2023-07-29T08:33:55;19.30;99.90
7518;DHT22;3800;48.922;9.444;2023-07-29T08:36:23;19.30;99.90
7518;DHT22;3800;48.922;9.444;2023-07-29T08:38:51;19.50;99.90
7518;DHT22;3800;48.922;9.444;2023-07-29T08:41:26;19.50;99.90
7518;DHT22;3800;48.922;9.444;2023-07-29T08:46:39;19.50;99.90
7518;DHT22;3800;48.922;9.444;2023-07-29T08:49:08;19.50;99.90
7518;DHT22;3800;48.922;9.444;2023-07-29T08:51:36;19.60;99.90
7518;DHT22;3800;48.922;9.444;2023-07-29T08:54:04;19.60;99.90
7518;DHT22;3800;48.922;9.444;2023-07-29T08:56:32;19.50;99.90
7518;DHT22;3800;48.922;9.444;2023-07-29T08:59:01;19.60;99.90
7518;DHT22;3800;48.922;9.444;2023-07-29T09:01:30;19.60;99.90
7518;DHT22;3800;48.922;9.444;2023-07-29T09:03:58;19.90;99.90
7518;DHT22;3800;48.922;9.444;2023-07-29T09:06:26;20.10;99.90
7518;DHT22;3800;48.922;9.444;2023-07-29T09:08:55;20.50;99.90
7518;DHT22;3800;48.922;9.444;2023-07-29T09:11:24;20.50;99.90
7518;DHT22;3800;48.922;9.444;2023-07-29T09:13:52;20.60;99.90
7518;DHT22;3800;48.922;9.444;2023-07-29T09:16:21;20.70;99.90
7518;DHT22;3800;48.922;9.444;2023-07-29T09:18:49;20.70;99.90
7518;DHT22;3800;48.922;9.444;2023-07-29T09:21:22;20.90;99.90
7518;DHT22;3800;48.922;9.444;2023-07-29T09:23:50;21.10;99.90
7518;DHT22;3800;48.922;9.444;2023-07-29T09:26:26;21.30;99.90
7518;DHT22;3800;48.922;9.444;2023-07-29T09:28:56;21.30;99.90
7518;DHT22;3800;48.922;9.444;2023-07-29T09:31:24;21.30;99.90
7518;DHT22;3800;48.922;9.444;2023-07-29T09:33:57;21.40;99.90
7518;DHT22;3800;48.922;9.444;2023-07-29T09:36:25;21.40;99.90
7518;DHT22;3800;48.922;9.444;2023-07-29T09:38:54;21.50;99.90
7518;DHT22;3800;48.922;9.444;2023-07-29T09:41:24;21.60;99.90
7518;DHT22;3800;48.922;9.444;2023-07-29T09:43:55;22.10;99.90
7518;DHT22;3800;48.922;9.444;2023-07-29T09:46:24;22.10;99.90
7518;DHT22;3800;48.922;9.444;2023-07-29T09:48:53;22.40;99.90
7518;DHT22;3800;48.922;9.444;2023-07-29T09:51:20;22.40;99.90
7518;DHT22;3800;48.922;9.444;2023-07-29T09:53:49;22.60;99.90
7518;DHT22;3800;48.922;9.444;2023-07-29T09:56:18;22.80;99.90
7518;DHT22;3800;48.922;9.444;2023-07-29T09:58:46;22.80;99.90
7518;DHT22;3800;48.922;9.444;2023-07-29T10:01:14;22.70;99.90
7518;DHT22;3800;48.922;9.444;2023-07-29T10:03:44;22.80;99.90
7518;DHT22;3800;48.922;9.444;2023-07-29T10:06:12;22.70;99.90
7518;DHT22;3800;48.922;9.444;2023-07-29T10:08:41;22.70;99.90
7518;DHT22;3800;48.922;9.444;2023-07-29T10:11:10;22.40;99.90
7518;DHT22;3800;48.922;9.444;2023-07-29T10:13:38;22.40;99.90
7518;DHT22;3800;48.922;9.444;2023-07-29T10:16:06;22.20;99.90
7518;DHT22;3800;48.922;9.444;2023-07-29T10:18:34;22.00;99.90
7518;DHT22;3800;48.922;9.444;2023-07-29T10:21:04;19.20;99.90
7518;DHT22;3800;48.922;9.444;2023-07-29T10:23:34;19.20;99.90
7518;DHT22;3800;48.922;9.444;2023-07-29T10:26:03;18.40;99.90
7518;DHT22;3800;48.922;9.444;2023-07-29T10:28:30;17.90;99.90
7518;DHT22;3800;48.922;9.444;2023-07-29T10:30:59;17.40;99.90
7518;DHT22;3800;48.922;9.444;2023-07-29T10:33:27;17.40;99.90
7518;DHT22;3800;48.922;9.444;2023-07-29T10:35:55;17.30;99.90
7518;DHT22;3800;48.922;9.444;2023-07-29T10:38:24;17.30;99.90
7518;DHT22;3800;48.922;9.444;2023-07-29T10:40:53;17.30;99.90
7518;DHT22;3800;48.922;9.444;2023-07-29T10:43:25;17.50;99.90
7518;DHT22;3800;48.922;9.444;2023-07-29T10:45:54;17.60;99.90
7518;DHT22;3800;48.922;9.444;2023-07-29T10:53:57;18.30;99.90
7518;DHT22;3800;48.922;9.444;2023-07-29T10:56:30;18.60;99.90
7518;DHT22;3800;48.922;9.444;2023-07-29T10:59:02;18.90;99.90
7518;DHT22;3800;48.922;9.444;2023-07-29T11:01:29;19.10;99.90
7518;DHT22;3800;48.922;9.444;2023-07-29T11:09:52;19.40;99.90
7518;DHT22;3800;48.922;9.444;2023-07-29T11:15:03;19.60;99.90
7518;DHT22;3800;48.922;9.444;2023-07-29T11:17:32;19.60;99.90
7518;DHT22;3800;48.922;9.444;2023-07-29T11:20:00;19.70;99.90
7518;DHT22;3800;48.922;9.444;2023-07-29T11:22:29;19.80;99.90
7518;DHT22;3800;48.922;9.444;2023-07-29T11:24:57;19.80;99.90
7518;DHT22;3800;48.922;9.444;2023-07-29T11:27:26;19.80;99.90
7518;DHT22;3800;48.922;9.444;2023-07-29T11:29:57;19.80;99.90
7518;DHT22;3800;48.922;9.444;2023-07-29T11:32:28;19.80;99.90
7518;DHT22;3800;48.922;9.444;2023-07-29T11:34:56;19.80;99.90
7518;DHT22;3800;48.922;9.444;2023-07-29T11:37:24;19.90;99.90
7518;DHT22;3800;48.922;9.444;2023-07-29T11:39:53;19.90;99.90
7518;DHT22;3800;48.922;9.444;2023-07-29T11:42:21;19.90;99.90
7518;DHT22;3800;48.922;9.444;2023-07-29T11:44:50;19.90;99.90
7518;DHT22;3800;48.922;9.444;2023-07-29T11:47:19;20.00;99.90
7518;DHT22;3800;48.922;9.444;2023-07-29T11:49:47;20.00;99.90
7518;DHT22;3800;48.922;9.444;2023-07-29T11:52:15;20.10;99.90
7518;DHT22;3800;48.922;9.444;2023-07-29T11:54:47;20.20;99.90
7518;DHT22;3800;48.922;9.444;2023-07-29T11:57:14;20.30;99.90
7518;DHT22;3800;48.922;9.444;2023-07-29T11:59:43;20.50;99.90
7518;DHT22;3800;48.922;9.444;2023-07-29T12:02:12;20.60;99.90
7518;DHT22;3800;48.922;9.444;2023-07-29T12:04:40;20.60;99.90
7518;DHT22;3800;48.922;9.444;2023-07-29T12:07:09;20.50;99.90
7518;DHT22;3800;48.922;9.444;2023-07-29T12:09:37;20.40;99.90
7518;DHT22;3800;48.922;9.444;2023-07-29T12:12:06;20.40;99.90
7518;DHT22;3800;48.922;9.444;2023-07-29T12:14:35;20.30;99.90
7518;DHT22;3800;48.922;9.444;2023-07-29T12:17:04;20.30;99.90
7518;DHT22;3800;48.922;9.444;2023-07-29T12:19:33;20.30;99.90
7518;DHT22;3800;48.922;9.444;2023-07-29T12:22:02;20.30;99.90
7518;DHT22;3800;48.922;9.444;2023-07-29T12:24:31;20.30;99.90
7518;DHT22;3800;48.922;9.444;2023-07-29T12:26:59;20.40;99.90
7518;DHT22;3800;48.922;9.444;2023-07-29T12:29:28;20.60;99.90
7518;DHT22;3800;48.922;9.444;2023-07-29T12:31:59;20.60;99.90
7518;DHT22;3800;48.922;9.444;2023-07-29T12:34:26;20.60;99.90
7518;DHT22;3800;48.922;9.444;2023-07-29T12:36:55;20.60;99.90
7518;DHT22;3800;48.922;9.444;2023-07-29T12:39:27;20.60;99.90
7518;DHT22;3800;48.922;9.444;2023-07-29T12:41:55;20.60;99.90
7518;DHT22;3800;48.922;9.444;2023-07-29T12:44:24;20.60;99.90
7518;DHT22;3800;48.922;9.444;2023-07-29T12:46:51;20.60;99.90
7518;DHT22;3800;48.922;9.444;2023-07-29T12:49:20;20.60;99.90
7518;DHT22;3800;48.922;9.444;2023-07-29T12:51:49;20.70;99.90
7518;DHT22;3800;48.922;9.444;2023-07-29T12:54:17;20.70;99.90
7518;DHT22;3800;48.922;9.444;2023-07-29T12:56:45;20.80;99.90
7518;DHT22;3800;48.922;9.444;2023-07-29T12:59:13;20.80;99.90
7518;DHT22;3800;48.922;9.444;2023-07-29T13:01:42;20.90;99.90
7518;DHT22;3800;48.922;9.444;2023-07-29T13:04:11;21.30;99.90
7518;DHT22;3800;48.922;9.444;2023-07-29T13:06:39;21.30;99.90
7518;DHT22;3800;48.922;9.444;2023-07-29T13:09:07;21.50;99.90
7518;DHT22;3800;48.922;9.444;2023-07-29T13:11:36;21.70;99.90
7518;DHT22;3800;48.922;9.444;2023-07-29T13:14:05;21.60;99.90
7518;DHT22;3800;48.922;9.444;2023-07-29T13:16:33;21.60;99.90
7518;DHT22;3800;48.922;9.444;2023-07-29T13:19:01;21.70;99.90
7518;DHT22;3800;48.922;9.444;2023-07-29T13:21:30;21.80;99.90
7518;DHT22;3800;48.922;9.444;2023-07-29T13:23:58;21.80;99.90
7518;DHT22;3800;48.922;9.444;2023-07-29T13:26:27;21.90;99.90
7518;DHT22;3800;48.922;9.444;2023-07-29T13:28:56;22.10;99.90
7518;DHT22;3800;48.922;9.444;2023-07-29T13:31:24;22.00;99.90
7518;DHT22;3800;48.922;9.444;2023-07-29T13:33:52;22.10;99.90
7518;DHT22;3800;48.922;9.444;2023-07-29T13:36:21;22.20;99.90
7518;DHT22;3800;48.922;9.444;2023-07-29T13:38:49;22.20;99.90
7518;DHT22;3800;48.922;9.444;2023-07-29T13:41:17;22.20;99.90
7518;DHT22;3800;48.922;9.444;2023-07-29T13:43:45;22.30;99.90
7518;DHT22;3800;48.922;9.444;2023-07-29T13:46:14;22.20;99.90
7518;DHT22;3800;48.922;9.444;2023-07-29T13:48:42;22.30;99.90
7518;DHT22;3800;48.922;9.444;2023-07-29T13:51:10;22.20;99.90
7518;DHT22;3800;48.922;9.444;2023-07-29T13:53:39;22.00;99.90
7518;DHT22;3800;48.922;9.444;2023-07-29T13:56:07;22.00;99.90
7518;DHT22;3800;48.922;9.444;2023-07-29T13:58:36;22.00;99.90
7518;DHT22;3800;48.922;9.444;2023-07-29T14:01:04;22.00;99.90
7518;DHT22;3800;48.922;9.444;2023-07-29T14:03:33;22.00;99.90
7518;DHT22;3800;48.922;9.444;2023-07-29T14:06:01;22.00;99.90
7518;DHT22;3800;48.922;9.444;2023-07-29T14:08:30;22.00;99.90
7518;DHT22;3800;48.922;9.444;2023-07-29T14:10:58;22.00;99.90
7518;DHT22;3800;48.922;9.444;2023-07-29T14:13:26;22.10;99.90
7518;DHT22;3800;48.922;9.444;2023-07-29T14:15:54;22.20;99.90
7518;DHT22;3800;48.922;9.444;2023-07-29T14:18:23;22.30;99.90
7518;DHT22;3800;48.922;9.444;2023-07-29T14:20:51;22.40;99.90
7518;DHT22;3800;48.922;9.444;2023-07-29T14:23:19;22.40;99.90
7518;DHT22;3800;48.922;9.444;2023-07-29T14:25:47;22.60;99.90
7518;DHT22;3800;48.922;9.444;2023-07-29T14:28:16;22.60;99.90
7518;DHT22;3800;48.922;9.444;2023-07-29T14:30:44;22.70;99.90
7518;DHT22;3800;48.922;9.444;2023-07-29T14:33:12;22.80;99.90
7518;DHT22;3800;48.922;9.444;2023-07-29T14:35:40;22.80;99.90
7518;DHT22;3800;48.922;9.444;2023-07-29T14:38:09;22.90;99.90
7518;DHT22;3800;48.922;9.444;2023-07-29T14:40:37;23.00;99.90
7518;DHT22;3800;48.922;9.444;2023-07-29T14:43:05;22.90;99.90
7518;DHT22;3800;48.922;9.444;2023-07-29T14:45:34;22.80;99.90
7518;DHT22;3800;48.922;9.444;2023-07-29T14:48:03;22.80;99.90
7518;DHT22;3800;48.922;9.444;2023-07-29T14:50:31;22.70;99.90
7518;DHT22;3800;48.922;9.444;2023-07-29T14:52:59;22.70;99.90
7518;DHT22;3800;48.922;9.444;2023-07-29T14:55:28;22.70;99.90
7518;DHT22;3800;48.922;9.444;2023-07-29T14:57:56;22.80;99.90
7518;DHT22;3800;48.922;9.444;2023-07-29T15:00:24;22.80;99.90
7518;DHT22;3800;48.922;9.444;2023-07-29T15:02:52;22.80;99.90
7518;DHT22;3800;48.922;9.444;2023-07-29T15:05:21;22.90;99.90
7518;DHT22;3800;48.922;9.444;2023-07-29T15:07:50;22.90;99.90
7518;DHT22;3800;48.922;9.444;2023-07-29T15:10:18;23.00;99.90
7518;DHT22;3800;48.922;9.444;2023-07-29T15:12:46;22.90;99.90
7518;DHT22;3800;48.922;9.444;2023-07-29T15:15:15;22.90;99.90
7518;DHT22;3800;48.922;9.444;2023-07-29T15:17:43;22.90;99.90
7518;DHT22;3800;48.922;9.444;2023-07-29T15:20:11;22.90;99.90
7518;DHT22;3800;48.922;9.444;2023-07-29T15:22:40;23.00;99.90
7518;DHT22;3800;48.922;9.444;2023-07-29T15:25:09;23.00;99.90
7518;DHT22;3800;48.922;9.444;2023-07-29T15:27:37;23.10;99.90
7518;DHT22;3800;48.922;9.444;2023-07-29T15:30:06;23.10;99.90
7518;DHT22;3800;48.922;9.444;2023-07-29T15:32:35;23.10;99.90
7518;DHT22;3800;48.922;9.444;2023-07-29T15:35:03;23.10;99.90
7518;DHT22;3800;48.922;9.444;2023-07-29T15:37:32;23.20;99.90
7518;DHT22;3800;48.922;9.444;2023-07-29T15:40:00;23.20;99.90
7518;DHT22;3800;48.922;9.444;2023-07-29T15:42:28;23.30;99.90
7518;DHT22;3800;48.922;9.444;2023-07-29T15:44:57;23.40;99.90
7518;DHT22;3800;48.922;9.444;2023-07-29T15:47:25;23.40;99.90
7518;DHT22;3800;48.922;9.444;2023-07-29T15:49:54;23.40;99.90
7518;DHT22;3800;48.922;9.444;2023-07-29T15:52:23;23.50;99.90
7518;DHT22;3800;48.922;9.444;2023-07-29T15:54:51;23.50;99.90
7518;DHT22;3800;48.922;9.444;2023-07-29T15:57:19;23.50;99.90
7518;DHT22;3800;48.922;9.444;2023-07-29T15:59:48;23.50;99.90
7518;DHT22;3800;48.922;9.444;2023-07-29T16:02:17;23.50;99.90
7518;DHT22;3800;48.922;9.444;2023-07-29T16:04:45;23.40;99.90
7518;DHT22;3800;48.922;9.444;2023-07-29T16:07:13;23.30;99.90
7518;DHT22;3800;48.922;9.444;2023-07-29T16:09:42;23.40;99.90
7518;DHT22;3800;48.922;9.444;2023-07-29T16:12:11;23.40;99.90
7518;DHT22;3800;48.922;9.444;2023-07-29T16:14:39;23.30;99.90
7518;DHT22;3800;48.922;9.444;2023-07-29T16:17:07;23.40;99.90
7518;DHT22;3800;48.922;9.444;2023-07-29T16:19:51;23.30;99.90
7518;DHT22;3800;48.922;9.444;2023-07-29T16:22:04;23.30;99.90
7518;DHT22;3800;48.922;9.444;2023-07-29T16:24:33;23.30;99.90
7518;DHT22;3800;48.922;9.444;2023-07-29T16:27:01;23.30;99.90